Havensville, Kansas
Current Conditions -  °F | °C
As of 9:15 AM on Monday 24 Nov 2014 (Local Time) from KMYZ Reporting Station
Overcast Overcast  
Wind Chill: 19°   Ceiling: 3000
Heat Index: 32°   Visibility: 10mi
Dew Point: 23°   Wind: 22mph
Humidity: 69%   Direction: 330°NNW
Pressure: 29.75"   Gusts: 28mph
Location:  39.51°N, 96.08°W
Report Text: KMYZ 241515Z AUTO 33019G24KT 10SM OVC030 00/M05 A2975 RMK AO2
Loading
Personal Weather Stations






























Interactive Weather Map New forecast layout! Learn more

10-Day Weather Forecast

Advertisements
Track Severe Weather on mobile